Time;durP1;ratioP1;P1;durP2;ratioP2;P2;SDS_P1;SDS_P2;PMS_P1;PMS_P2;Temp;Humidity;BMP_temperature;BMP_pressure;BME280_temperature;BME280_humidity;BME280_pressure;Samples;Min_cycle;Max_cycle;Signal;HPM_P1;HPM_P2
2021/07/04 00:02:42;;;;;;;2.45;2.17;;;;;;;-148.56;100.00;61375.16;4927604;28;20529;-35
2021/07/04 00:06:07;;;;;;;3.78;2.05;;;;;;;-148.56;100.00;61375.16;4937918;28;20033;-34
2021/07/04 00:09:31;;;;;;;3.92;2.22;;;;;;;-148.56;100.00;61375.16;4930423;28;20288;-35
2021/07/04 00:12:55;;;;;;;3.47;2.10;;;;;;;-148.56;100.00;61375.16;4934934;28;20070;-35
2021/07/04 00:16:19;;;;;;;5.43;2.30;;;;;;;-148.56;100.00;61375.16;4931563;28;20035;-36
2021/07/04 00:19:43;;;;;;;4.53;2.40;;;;;;;-148.56;100.00;61375.16;4935625;28;20101;-34
2021/07/04 00:23:08;;;;;;;5.03;2.33;;;;;;;-148.56;100.00;61375.16;4935794;28;20023;-33
2021/07/04 00:26:34;;;;;;;4.63;2.55;;;;;;;-148.56;100.00;61375.16;4939717;28;20031;-33
2021/07/04 00:29:58;;;;;;;5.28;2.47;;;;;;;-148.56;100.00;61375.16;4934237;28;20034;-34
2021/07/04 00:33:22;;;;;;;3.90;2.13;;;;;;;-148.56;100.00;61375.16;4935277;28;20090;-29
2021/07/04 00:36:46;;;;;;;5.47;2.33;;;;;;;-148.56;100.00;61375.16;4935652;28;20393;-33
2021/07/04 00:40:10;;;;;;;3.97;2.25;;;;;;;-148.56;100.00;61375.16;4938055;28;20106;-32
2021/07/04 00:43:34;;;;;;;7.18;2.25;;;;;;;-148.56;100.00;61375.16;4929772;28;20033;-32
2021/07/04 00:46:58;;;;;;;4.22;2.25;;;;;;;-148.56;100.00;61375.16;4946486;28;20853;-34
2021/07/04 00:50:05;;;;;;;2.33;1.90;;;;;;;29.33;35.72;96446.19;4938147;28;20058;-35
2021/07/04 00:52:30;;;;;;;3.10;2.08;;;;;;;29.31;35.91;96352.25;4936242;28;20039;-30
2021/07/04 00:54:56;;;;;;;3.22;2.00;;;;;;;29.29;36.00;96354.19;4948435;28;20019;-34
2021/07/04 00:57:21;;;;;;;4.13;2.00;;;;;;;29.28;35.91;96355.13;4959145;28;20042;-32
2021/07/04 00:59:49;;;;;;;3.22;2.30;;;;;;;29.29;35.96;96362.09;4946543;28;20038;-33
2021/07/04 01:02:14;;;;;;;7.22;2.22;;;;;;;29.27;36.04;96354.28;4933348;28;20038;-31
2021/07/04 01:04:40;;;;;;;6.43;2.30;;;;;;;29.28;35.97;96352.47;4938421;28;20177;-35
2021/07/04 01:07:05;;;;;;;3.15;2.08;;;;;;;29.29;35.84;96354.19;4935148;28;20031;-32
2021/07/04 01:09:31;;;;;;;3.33;2.00;;;;;;;29.29;35.83;96355.00;4937426;28;20035;-32
2021/07/04 01:11:56;;;;;;;3.20;2.08;;;;;;;29.28;35.85;96352.47;4933090;28;20030;-33
2021/07/04 01:14:22;;;;;;;2.97;2.10;;;;;;;29.29;35.93;96354.19;4933099;28;20030;-35
2021/07/04 01:16:47;;;;;;;3.70;2.30;;;;;;;29.28;36.11;96349.84;4931431;28;20038;-37
2021/07/04 01:19:16;;;;;;;6.90;2.20;;;;;;;29.30;35.98;96355.88;4946995;28;20030;-35
2021/07/04 01:21:42;;;;;;;6.35;2.25;;;;;;;29.28;36.09;96353.34;4933275;28;20031;-35
2021/07/04 01:24:08;;;;;;;2.70;2.10;;;;;;;29.27;36.00;96361.38;4934603;28;20034;-32
2021/07/04 01:26:33;;;;;;;3.67;2.10;;;;;;;29.28;35.81;96352.47;4949159;28;20262;-36
2021/07/04 01:28:59;;;;;;;2.80;2.00;;;;;;;29.28;36.00;96353.34;4937373;28;20034;-34
2021/07/04 01:31:24;;;;;;;3.97;2.20;;;;;;;29.28;36.08;96358.63;4937390;28;20429;-34
2021/07/04 01:33:50;;;;;;;3.13;2.33;;;;;;;29.28;36.01;96357.75;4934412;28;20046;-36
2021/07/04 01:36:16;;;;;;;6.00;2.25;;;;;;;29.28;35.98;96363.03;4938660;28;20027;-34
2021/07/04 01:38:41;;;;;;;5.93;2.30;;;;;;;29.27;35.92;96351.66;4937873;28;20027;-34
2021/07/04 01:41:07;;;;;;;3.42;2.10;;;;;;;29.28;36.12;96352.47;4937178;28;20355;-35
2021/07/04 01:43:32;;;;;;;3.80;1.85;;;;;;;29.27;35.86;96356.09;4950886;28;20119;-37
2021/07/04 01:45:57;;;;;;;5.88;2.40;;;;;;;29.28;35.96;96352.47;4934098;28;20720;-34
2021/07/04 01:48:23;;;;;;;5.72;2.30;;;;;;;29.28;35.89;96357.75;4934830;28;20062;-37
2021/07/04 01:50:49;;;;;;;3.00;2.08;;;;;;;29.27;36.06;96350.81;4936679;28;20039;-32
2021/07/04 01:53:15;;;;;;;4.05;2.15;;;;;;;29.27;35.85;96349.03;4950298;28;20140;-35
2021/07/04 01:55:41;;;;;;;5.13;2.00;;;;;;;29.27;35.83;96342.88;4936922;28;20027;-34
2021/07/04 01:58:06;;;;;;;3.00;2.08;;;;;;;29.28;36.04;96347.19;4963258;28;20071;-30
2021/07/04 02:00:32;;;;;;;7.30;2.00;;;;;;;29.27;35.96;96342.88;4933279;28;20055;-35
2021/07/04 02:03:00;;;;;;;2.65;1.85;;;;;;;29.27;35.81;96342.88;4931184;28;21138;-33
2021/07/04 02:05:25;;;;;;;3.40;2.00;;;;;;;29.28;35.79;96341.94;4932819;28;20134;-33
2021/07/04 02:07:51;;;;;;;6.35;2.10;;;;;;;29.27;35.70;96340.25;4936205;28;20034;-32
2021/07/04 02:10:19;;;;;;;4.53;2.05;;;;;;;29.26;35.77;96338.56;4934834;28;20043;-31
2021/07/04 02:12:45;;;;;;;2.15;1.77;;;;;;;29.26;36.03;96351.78;4933749;28;20144;-37
2021/07/04 02:15:15;;;;;;;2.97;1.98;;;;;;;29.25;35.75;96348.28;4931658;28;20046;-32
2021/07/04 02:17:40;;;;;;;6.00;1.90;;;;;;;29.26;36.11;96349.13;4949078;28;20039;-35
2021/07/04 02:20:32;;;;;;;3.60;2.10;;;;;;;29.26;36.02;96354.41;4937028;28;20061;-33
2021/07/04 02:23:08;;;;;;;4.38;2.10;;;;;;;29.27;35.89;96348.16;4935659;28;20027;-33
2021/07/04 02:25:35;;;;;;;4.82;2.15;;;;;;;29.26;35.84;96339.44;4927794;28;20031;-34
2021/07/04 02:28:00;;;;;;;2.58;1.98;;;;;;;29.26;35.91;96331.50;4934219;28;20716;-35
2021/07/04 02:30:26;;;;;;;4.10;1.73;;;;;;;29.26;35.91;96333.28;4934346;28;20093;-34
2021/07/04 02:32:52;;;;;;;2.42;1.77;;;;;;;29.26;36.02;96328.03;4930920;28;20038;-33
2021/07/04 02:35:17;;;;;;;6.57;2.10;;;;;;;29.26;35.86;96328.03;4930278;28;20023;-34
2021/07/04 02:37:43;;;;;;;2.63;1.90;;;;;;;29.25;36.14;96331.63;4933785;28;20042;-35
2021/07/04 02:40:09;;;;;;;3.58;2.20;;;;;;;29.25;35.95;96332.44;4943099;28;20035;-35
2021/07/04 02:42:34;;;;;;;4.47;1.92;;;;;;;29.26;36.00;96338.56;4933078;28;20732;-36
2021/07/04 02:45:00;;;;;;;7.82;2.53;;;;;;;29.25;36.08;96332.44;4965620;28;20027;-34
2021/07/04 02:47:28;;;;;;;3.92;2.00;;;;;;;29.26;36.08;96335.94;4935150;28;20019;-32
2021/07/04 02:49:54;;;;;;;4.88;2.13;;;;;;;29.25;35.90;96337.72;4935213;28;20029;-35
2021/07/04 02:52:19;;;;;;;2.13;1.75;;;;;;;29.24;35.87;96329.91;4964619;28;20418;-34
2021/07/04 02:54:45;;;;;;;3.63;2.33;;;;;;;29.24;35.89;96325.50;4938011;28;20027;-34
2021/07/04 02:57:18;;;;;;;9.18;2.17;;;;;;;29.24;35.89;96325.50;4934186;28;20031;-35
2021/07/04 02:59:57;;;;;;;3.22;1.92;;;;;;;29.24;35.89;96325.50;4938804;28;20062;-36
2021/07/04 03:02:24;;;;;;;4.13;2.10;;;;;;;-148.56;100.00;61375.16;4928378;28;20042;-29
2021/07/04 03:04:49;;;;;;;5.00;1.88;;;;;;;29.34;35.80;96321.19;4929754;28;20030;-32
2021/07/04 03:07:15;;;;;;;3.75;2.10;;;;;;;29.29;35.90;96318.06;4934260;28;20034;-32
2021/07/04 03:09:40;;;;;;;4.30;2.20;;;;;;;29.27;35.87;96313.84;4935854;28;20085;-34
2021/07/04 03:12:06;;;;;;;3.85;2.13;;;;;;;29.26;35.79;96318.31;4924812;28;20041;-32
2021/07/04 03:14:32;;;;;;;3.67;1.90;;;;;;;29.26;36.00;96314.81;4924523;28;20093;-30
2021/07/04 03:16:57;;;;;;;3.45;2.28;;;;;;;29.26;35.99;96313.03;4932679;28;20522;-30
2021/07/04 03:19:23;;;;;;;3.72;2.08;;;;;;;29.25;35.91;96299.97;4929958;28;20030;-33
2021/07/04 03:21:48;;;;;;;3.35;1.95;;;;;;;29.25;36.10;96302.59;4931541;28;20027;-33
2021/07/04 03:24:14;;;;;;;3.42;2.03;;;;;;;29.26;36.19;96306.91;4937311;28;20118;-35
2021/07/04 03:26:39;;;;;;;4.47;2.33;;;;;;;29.25;36.09;96307.88;4934905;28;20033;-39
2021/07/04 03:29:05;;;;;;;7.93;2.22;;;;;;;29.24;36.05;96303.53;4938914;28;20114;-36
2021/07/04 03:31:30;;;;;;;4.25;1.90;;;;;;;29.24;35.83;96303.53;4933930;28;20046;-34
2021/07/04 03:33:56;;;;;;;4.38;2.10;;;;;;;29.25;35.90;96307.88;4936365;28;20374;-35
2021/07/04 03:36:21;;;;;;;4.70;2.42;;;;;;;29.24;35.87;96303.53;4931955;28;20819;-31
2021/07/04 03:38:46;;;;;;;2.25;2.00;;;;;;;29.24;35.92;96303.53;4936596;28;20036;-34
2021/07/04 03:41:12;;;;;;;3.92;2.20;;;;;;;29.23;35.99;96301.84;4934365;28;21083;-33
2021/07/04 03:43:37;;;;;;;4.43;1.98;;;;;;;29.24;36.24;96306.16;4935483;28;21935;-34
2021/07/04 03:46:03;;;;;;;5.50;2.50;;;;;;;29.24;35.91;96314.09;4938615;28;20038;-31
2021/07/04 03:48:28;;;;;;;5.05;2.25;;;;;;;29.23;36.15;96312.41;4936860;28;20031;-33
2021/07/04 03:50:53;;;;;;;3.13;2.05;;;;;;;29.24;35.89;96308.81;4935721;28;20031;-33
2021/07/04 03:53:19;;;;;;;2.75;2.10;;;;;;;29.23;35.72;96307.13;4937865;28;20533;-35
2021/07/04 03:55:44;;;;;;;3.78;2.22;;;;;;;29.23;36.02;96307.13;4932833;28;20027;-37
2021/07/04 03:58:09;;;;;;;3.65;1.98;;;;;;;29.24;36.12;96308.81;4934252;28;21087;-32
2021/07/04 04:00:36;;;;;;;5.40;2.40;;;;;;;29.23;36.10;96315.03;4937963;28;20046;-33
2021/07/04 04:03:01;;;;;;;6.15;1.95;;;;;;;29.24;36.19;96319.34;4937608;28;20256;-32
2021/07/04 04:05:26;;;;;;;3.45;2.25;;;;;;;29.23;36.20;96322.97;4937338;28;20528;-36
2021/07/04 04:07:52;;;;;;;4.38;1.80;;;;;;;29.24;35.97;96322.00;4940963;28;20714;-33
2021/07/04 04:10:17;;;;;;;5.25;2.08;;;;;;;29.23;36.25;96325.59;4934366;28;20145;-36
2021/07/04 04:12:43;;;;;;;6.15;2.00;;;;;;;29.21;36.21;96321.28;4935634;28;20038;-33
2021/07/04 04:15:09;;;;;;;3.25;2.28;;;;;;;29.21;36.03;96329.19;4937675;28;20054;-33
2021/07/04 04:17:34;;;;;;;3.35;2.25;;;;;;;29.22;36.21;96332.69;4952690;28;20023;-33
2021/07/04 04:20:00;;;;;;;2.28;1.80;;;;;;;29.22;36.13;96327.41;4937783;28;20128;-35
2021/07/04 04:22:25;;;;;;;5.53;2.00;;;;;;;29.21;36.04;96323.06;4936380;28;20247;-33
2021/07/04 04:24:50;;;;;;;3.55;2.13;;;;;;;29.21;36.26;96323.94;4935673;28;21077;-33
2021/07/04 04:27:16;;;;;;;3.50;2.20;;;;;;;29.21;36.04;96323.94;4937582;28;20532;-31
2021/07/04 04:29:41;;;;;;;4.07;2.03;;;;;;;29.21;36.31;96321.28;4938546;28;20034;-33
2021/07/04 04:32:07;;;;;;;5.07;2.13;;;;;;;29.23;36.04;96322.97;4951231;28;20692;-31
2021/07/04 04:34:32;;;;;;;3.33;1.83;;;;;;;29.22;36.05;96322.13;4935882;28;20788;-31
2021/07/04 04:37:01;;;;;;;3.65;1.95;;;;;;;29.21;36.06;96316.00;4933589;28;20034;-31
2021/07/04 04:39:26;;;;;;;2.83;1.88;;;;;;;29.18;36.19;96316.22;4938302;28;20027;-31
2021/07/04 04:41:52;;;;;;;4.30;1.90;;;;;;;29.21;36.20;96316.00;4967776;28;20046;-37
2021/07/04 04:44:17;;;;;;;4.05;2.20;;;;;;;29.16;35.95;96310.25;4933807;28;20499;-30
2021/07/04 04:46:43;;;;;;;4.65;1.92;;;;;;;29.20;36.24;96309.06;4937366;28;20046;-31
2021/07/04 04:49:10;;;;;;;3.30;1.83;;;;;;;29.21;36.23;96310.72;4935946;28;20038;-32
2021/07/04 04:51:35;;;;;;;3.75;1.70;;;;;;;29.20;36.31;96306.41;4936434;28;20030;-32
2021/07/04 04:54:01;;;;;;;2.33;1.90;;;;;;;29.20;35.99;96301.13;4935842;28;20030;-33
2021/07/04 04:56:26;;;;;;;3.75;1.95;;;;;;;29.19;36.10;96296.81;4938548;28;20872;-34
2021/07/04 04:58:52;;;;;;;4.28;2.17;;;;;;;29.19;36.27;96291.56;4936143;28;20251;-32
2021/07/04 05:01:17;;;;;;;2.75;2.00;;;;;;;29.20;36.15;96295.88;4934938;28;20034;-32
2021/07/04 05:03:44;;;;;;;4.05;2.00;;;;;;;29.20;35.97;96287.09;4935746;28;20094;-34
2021/07/04 05:06:10;;;;;;;5.63;1.88;;;;;;;29.19;36.08;96291.56;4938693;28;20058;-35
2021/07/04 05:08:35;;;;;;;4.18;2.15;;;;;;;29.19;36.02;96285.41;4935801;28;20038;-31
2021/07/04 05:11:00;;;;;;;3.33;1.90;;;;;;;29.19;36.08;96291.56;4932767;28;20031;-29
2021/07/04 05:13:26;;;;;;;2.85;2.05;;;;;;;29.19;36.29;96281.00;4928017;28;21571;-32
2021/07/04 05:15:51;;;;;;;5.63;2.20;;;;;;;29.19;36.21;96278.34;4934893;28;20043;-34
2021/07/04 05:18:17;;;;;;;6.10;2.13;;;;;;;29.20;36.10;96276.53;4938351;28;20023;-33
2021/07/04 05:21:40;;;;;;;2.53;1.70;;;;;;;-148.56;100.00;61375.16;4945642;28;20062;-33
2021/07/04 05:25:05;;;;;;;4.00;2.15;;;;;;;-148.56;100.00;61375.16;4935945;28;20219;-34
2021/07/04 05:28:29;;;;;;;3.63;2.05;;;;;;;-148.56;100.00;61375.16;4936062;28;20061;-33
2021/07/04 05:31:53;;;;;;;2.65;1.90;;;;;;;-148.56;100.00;61375.16;4928757;28;20043;-34
2021/07/04 05:35:17;;;;;;;2.10;1.88;;;;;;;-148.56;100.00;61375.16;4931172;28;20062;-32
2021/07/04 05:38:42;;;;;;;4.05;1.77;;;;;;;-148.56;100.00;61375.16;4942556;28;20031;-33
2021/07/04 05:42:06;;;;;;;5.15;1.80;;;;;;;-148.56;100.00;61375.16;4936647;28;20034;-30
2021/07/04 05:45:30;;;;;;;3.33;1.70;;;;;;;-148.56;100.00;61375.16;4931598;28;20944;-31
2021/07/04 05:48:54;;;;;;;5.22;1.90;;;;;;;-148.56;100.00;61375.16;4932327;28;20149;-34
2021/07/04 05:52:18;;;;;;;2.50;2.00;;;;;;;-148.56;100.00;61375.16;4959924;28;20819;-29
2021/07/04 05:55:42;;;;;;;4.00;1.90;;;;;;;-148.56;100.00;61375.16;4966516;28;20045;-37
2021/07/04 05:59:06;;;;;;;3.85;1.73;;;;;;;-148.56;100.00;61375.16;4929971;28;20034;-35
2021/07/04 06:01:31;;;;;;;2.17;1.90;;;;;;;29.28;36.33;96262.75;4930251;28;20404;-32
2021/07/04 06:03:57;;;;;;;2.88;1.90;;;;;;;29.24;36.32;96261.31;4935320;28;21057;-35
2021/07/04 06:06:22;;;;;;;3.20;1.80;;;;;;;29.24;36.46;96261.31;4936178;28;20886;-33
2021/07/04 06:08:48;;;;;;;3.92;1.88;;;;;;;29.21;36.25;96252.69;4929875;28;20034;-34
2021/07/04 06:11:13;;;;;;;3.55;1.80;;;;;;;29.21;36.48;96247.41;4935062;28;20027;-32
2021/07/04 06:13:39;;;;;;;2.70;1.73;;;;;;;29.21;36.57;96247.41;4934736;28;20037;-32
2021/07/04 06:16:04;;;;;;;2.85;1.80;;;;;;;29.22;36.26;96242.97;4934435;28;20031;-36
2021/07/04 06:18:30;;;;;;;2.08;1.50;;;;;;;29.22;36.51;96240.34;4936108;28;20042;-35
2021/07/04 06:20:55;;;;;;;4.82;1.52;;;;;;;29.23;36.33;96238.53;4926990;28;20035;-34
2021/07/04 06:23:21;;;;;;;5.63;1.73;;;;;;;29.24;36.27;96248.97;4930996;28;20081;-31
2021/07/04 06:25:47;;;;;;;1.63;1.48;;;;;;;29.25;36.30;96252.47;4929110;28;20026;-31
2021/07/04 06:28:12;;;;;;;2.40;1.83;;;;;;;29.25;36.55;96258.56;4936985;28;20513;-33
2021/07/04 06:30:37;;;;;;;3.90;1.63;;;;;;;29.25;36.56;96263.00;4935993;28;20035;-29
2021/07/04 06:33:03;;;;;;;2.28;1.90;;;;;;;29.26;36.43;96270.81;4927220;28;20034;-33
2021/07/04 06:35:28;;;;;;;3.15;2.00;;;;;;;29.27;36.38;96276.91;4925248;28;20038;-31
2021/07/04 06:37:54;;;;;;;3.67;1.90;;;;;;;29.27;36.41;96272.50;4939752;28;20030;-29
2021/07/04 06:40:19;;;;;;;1.77;1.65;;;;;;;29.27;36.75;96264.56;4931165;28;20113;-32
2021/07/04 06:42:44;;;;;;;1.88;1.67;;;;;;;29.28;36.64;96268.03;4926357;28;20038;-36
2021/07/04 06:45:11;;;;;;;4.03;1.85;;;;;;;29.28;36.42;96268.03;4926393;28;20184;-32
2021/07/04 06:47:40;;;;;;;3.65;1.55;;;;;;;29.29;36.68;96265.28;4952570;28;20037;-33
2021/07/04 06:50:06;;;;;;;3.67;2.10;;;;;;;29.29;36.50;96262.66;4929352;28;20072;-37
2021/07/04 06:52:31;;;;;;;5.13;2.60;;;;;;;29.26;36.74;96249.72;4929160;28;20075;-33
2021/07/04 06:54:57;;;;;;;5.38;3.28;;;;;;;29.31;36.70;96251.97;4935161;28;20027;-35
2021/07/04 06:57:28;;;;;;;5.97;3.55;;;;;;;29.25;36.81;96247.19;4944815;28;20498;-32
2021/07/04 06:59:57;;;;;;;;;;;;;;;29.26;36.97;96254.13;4930440;28;20586;-31
2021/07/04 07:02:26;;;;;;;5.45;3.75;;;;;;;29.21;36.86;96250.03;4926168;28;19965;-33
2021/07/04 07:04:52;;;;;;;6.13;4.13;;;;;;;29.16;37.48;96243.44;4930203;28;20034;-34
2021/07/04 07:07:18;;;;;;;8.60;3.70;;;;;;;29.14;37.35;96251.44;4943267;28;20050;-34
2021/07/04 07:09:43;;;;;;;11.48;3.55;;;;;;;29.10;37.17;96249.19;4931277;28;20034;-35
2021/07/04 07:12:09;;;;;;;12.02;3.65;;;;;;;29.06;37.23;96254.69;4930813;28;20027;-33
2021/07/04 07:14:34;;;;;;;8.15;3.80;;;;;;;28.99;37.21;96244.72;4931186;28;20042;-32
2021/07/04 07:17:00;;;;;;;7.22;3.50;;;;;;;29.01;37.17;96248.06;4933225;28;20327;-31
2021/07/04 07:19:25;;;;;;;10.88;3.45;;;;;;;28.98;37.73;96253.59;4931103;28;20031;-34
2021/07/04 07:21:50;;;;;;;4.75;3.55;;;;;;;28.95;37.68;96247.56;4926408;28;20051;-32
2021/07/04 07:24:16;;;;;;;6.47;3.50;;;;;;;28.93;37.38;96253.91;4946450;28;20841;-30
2021/07/04 07:26:41;;;;;;;6.65;3.85;;;;;;;28.91;37.53;96251.41;4934299;28;20040;-35
2021/07/04 07:29:06;;;;;;;4.05;3.60;;;;;;;28.87;37.17;96244.63;4935120;28;20039;-33
2021/07/04 07:31:35;;;;;;;5.20;3.70;;;;;;;28.87;37.45;96236.72;4931545;28;20868;-34
2021/07/04 07:34:01;;;;;;;7.55;3.60;;;;;;;28.83;37.61;96227.34;4933069;28;20093;-34
2021/07/04 07:36:26;;;;;;;7.43;4.05;;;;;;;28.84;37.77;96218.50;4947346;28;20027;-33
2021/07/04 07:38:54;;;;;;;15.95;3.88;;;;;;;28.81;37.71;96209.03;4932035;28;20519;-31
2021/07/04 07:41:19;;;;;;;3.72;3.33;;;;;;;28.80;37.64;96204.69;4931277;28;20035;-31
2021/07/04 07:43:46;;;;;;;6.47;3.90;;;;;;;28.69;37.32;96181.75;4937590;28;20049;-32
2021/07/04 07:47:10;;;;;;;6.45;3.72;;;;;;;-148.56;100.00;61375.16;4932318;28;20037;-33
2021/07/04 07:50:34;;;;;;;70.13;7.25;;;;;;;-148.56;100.00;61375.16;4932413;28;20177;-29
2021/07/04 07:53:58;;;;;;;29.98;4.50;;;;;;;-148.56;100.00;61375.16;4932569;28;20023;-37
2021/07/04 07:57:22;;;;;;;8.88;3.92;;;;;;;-148.56;100.00;61375.16;4934629;28;20028;-34
2021/07/04 08:00:46;;;;;;;9.98;3.78;;;;;;;-148.56;100.00;61375.16;4961775;28;20133;-30
2021/07/04 08:04:13;;;;;;;6.85;3.92;;;;;;;-148.56;100.00;61375.16;4930684;28;20122;-34
2021/07/04 08:07:37;;;;;;;8.65;3.90;;;;;;;-148.56;100.00;61375.16;4933875;28;20276;-29
2021/07/04 08:11:02;;;;;;;6.70;3.72;;;;;;;-148.56;100.00;61375.16;4933544;28;20027;-30
2021/07/04 08:14:26;;;;;;;12.48;4.00;;;;;;;-148.56;100.00;61375.16;4932547;28;20072;-33
2021/07/04 08:17:50;;;;;;;9.15;3.72;;;;;;;-148.56;100.00;61375.16;4932886;28;20034;-33
2021/07/04 08:21:14;;;;;;;10.98;4.65;;;;;;;-148.56;100.00;61375.16;4929880;28;20521;-35
2021/07/04 08:24:38;;;;;;;6.35;3.92;;;;;;;-148.56;100.00;61375.16;4937178;28;20038;-29
2021/07/04 08:28:02;;;;;;;7.30;3.85;;;;;;;-148.56;100.00;61375.16;4930989;28;20035;-35
2021/07/04 08:31:27;;;;;;;10.90;4.20;;;;;;;-148.56;100.00;61375.16;4934560;28;20054;-34
2021/07/04 08:34:51;;;;;;;7.30;4.13;;;;;;;-148.56;100.00;61375.16;4929583;28;20218;-36
2021/07/04 08:37:26;;;;;;;6.07;4.22;;;;;;;28.69;37.32;96181.75;4949376;28;20030;-33
2021/07/04 08:39:51;;;;;;;5.10;3.90;;;;;;;28.61;37.27;96197.34;4935486;28;20093;-34
2021/07/04 08:42:18;;;;;;;5.03;3.47;;;;;;;28.59;37.57;96199.22;4927141;28;20031;-31
2021/07/04 08:44:50;;;;;;;4.20;3.80;;;;;;;28.56;37.35;96194.19;4927697;28;20047;-29
2021/07/04 08:47:17;;;;;;;5.88;3.97;;;;;;;28.56;37.37;96194.19;4944639;28;20049;-34
2021/07/04 08:49:42;;;;;;;5.32;3.88;;;;;;;28.56;37.38;96194.19;4943601;28;20027;-32
2021/07/04 08:52:08;;;;;;;5.22;3.72;;;;;;;28.56;37.47;96195.03;4941813;28;20031;-32
2021/07/04 08:54:33;;;;;;;5.63;3.92;;;;;;;28.56;37.35;96195.03;4934507;28;20079;-28
2021/07/04 08:56:58;;;;;;;6.00;3.78;;;;;;;28.57;37.05;96190.63;4934077;28;20333;-32
2021/07/04 08:59:24;;;;;;;30.90;4.30;;;;;;;28.57;36.91;96193.25;4932928;28;20172;-35
2021/07/04 09:01:49;;;;;;;10.52;3.90;;;;;;;28.58;37.01;96188.81;4933716;28;20039;-34
2021/07/04 09:04:19;;;;;;;5.20;3.60;;;;;;;28.57;36.93;96187.97;4950737;28;20027;-32
2021/07/04 09:06:48;;;;;;;4.00;3.60;;;;;;;28.55;36.98;96187.25;4951319;28;20023;-35
2021/07/04 09:09:24;;;;;;;6.50;3.80;;;;;;;28.56;36.89;96188.91;4931640;28;20272;-32
2021/07/04 09:12:06;;;;;;;4.25;3.20;;;;;;;28.55;36.60;96176.69;4934877;28;20082;-34
2021/07/04 09:14:38;;;;;;;;;;;;;;;28.54;36.48;96175.03;4928226;28;20039;-32
2021/07/04 09:17:04;;;;;;;;;;;;;;;28.54;36.40;96170.56;4932630;28;19922;-31
2021/07/04 09:19:29;;;;;;;5.65;3.25;;;;;;;28.53;36.29;96171.53;4936787;28;19918;-37
2021/07/04 09:22:05;;;;;;;7.18;3.45;;;;;;;28.53;36.26;96168.06;4936522;28;20034;-32
2021/07/04 09:24:35;;;;;;;3.90;3.05;;;;;;;28.52;36.10;96169.84;4934921;28;20027;-31
2021/07/04 09:27:01;;;;;;;3.47;3.13;;;;;;;28.54;36.07;96172.38;4930732;28;20031;-35
2021/07/04 09:29:47;;;;;;;5.53;3.50;;;;;;;28.55;36.36;96163.50;4935583;28;20348;-31
2021/07/04 09:32:24;;;;;;;6.13;3.70;;;;;;;28.56;36.45;96152.88;4943652;28;20102;-30
2021/07/04 09:34:58;;;;;;;4.32;3.90;;;;;;;28.57;36.56;96159.00;4933469;28;20113;-36
2021/07/04 09:37:28;;;;;;;8.50;3.58;;;;;;;28.59;36.34;96166.75;4930233;28;21018;-33
2021/07/04 09:40:24;;;;;;;5.20;3.83;;;;;;;28.59;36.48;96157.06;4930681;28;20039;-35
2021/07/04 09:43:04;;;;;;;5.63;3.20;;;;;;;28.61;36.43;96154.31;4930520;28;20050;-33
2021/07/04 09:45:47;;;;;;;6.65;3.83;;;;;;;28.62;36.50;96146.28;4930923;28;21078;-33
2021/07/04 09:48:28;;;;;;;5.97;3.60;;;;;;;28.63;36.46;96158.50;4931029;28;20023;-31
2021/07/04 09:50:54;;;;;;;5.65;3.60;;;;;;;28.63;36.27;96153.25;4935382;28;20948;-32
2021/07/04 09:53:20;;;;;;;4.40;3.40;;;;;;;28.63;36.34;96147.97;4948535;28;20037;-30
2021/07/04 09:55:50;;;;;;;3.75;3.42;;;;;;;28.66;36.54;96142.47;4935136;28;20034;-28
2021/07/04 09:58:16;;;;;;;3.88;3.40;;;;;;;28.67;36.27;96138.03;4934609;28;20035;-31
2021/07/04 10:00:43;;;;;;;6.15;3.65;;;;;;;28.68;37.48;96129.19;4929353;28;20927;-33
2021/07/04 10:03:18;;;;;;;6.20;3.03;;;;;;;28.65;37.22;96130.22;4925978;28;20778;-32
2021/07/04 10:05:59;;;;;;;3.95;3.30;;;;;;;28.65;36.80;96119.69;4962392;28;20035;-34
2021/07/04 10:08:34;;;;;;;5.55;3.40;;;;;;;28.66;37.67;96121.38;4946483;28;20398;-38
2021/07/04 10:11:13;;;;;;;5.15;3.10;;;;;;;28.72;37.20;96119.22;4933010;28;20145;-34
2021/07/04 10:13:43;;;;;;;4.30;3.40;;;;;;;28.79;36.74;96120.44;4935968;28;20441;-35
2021/07/04 10:16:13;;;;;;;3.83;3.20;;;;;;;28.88;36.15;96130.31;4949131;28;20769;-35
2021/07/04 10:18:38;;;;;;;3.35;3.05;;;;;;;28.99;36.02;96120.75;4934141;28;20111;-33
2021/07/04 10:21:04;;;;;;;3.08;2.78;;;;;;;29.11;35.85;96125.06;4933596;28;20054;-30
2021/07/04 10:23:32;;;;;;;4.63;2.95;;;;;;;29.23;35.66;96123.28;4964725;28;20089;-32
2021/07/04 10:25:58;;;;;;;4.32;3.03;;;;;;;29.36;35.47;96130.25;4934561;28;20441;-35
2021/07/04 10:28:28;;;;;;;4.22;3.00;;;;;;;29.46;35.11;96124.13;4932876;28;20089;-33
2021/07/04 10:30:53;;;;;;;3.83;2.80;;;;;;;29.59;35.08;96120.50;4935566;28;20166;-31
2021/07/04 10:33:22;;;;;;;3.45;2.85;;;;;;;29.70;35.66;96119.66;4946281;28;20489;-31
2021/07/04 10:35:58;;;;;;;7.00;3.25;;;;;;;29.79;34.98;96107.53;4929856;28;20490;-27
2021/07/04 10:38:24;;;;;;;3.78;3.20;;;;;;;29.85;34.88;96104.38;4932423;28;20067;-33
2021/07/04 10:40:49;;;;;;;7.07;2.83;;;;;;;29.89;34.72;96113.72;4931685;28;20035;-35
2021/07/04 10:43:51;;;;;;;4.30;3.20;;;;;;;29.91;34.42;96106.53;4933329;28;20027;-30
2021/07/04 10:46:17;;;;;;;4.78;3.20;;;;;;;29.92;34.22;96108.22;4935590;28;20517;-31
2021/07/04 10:48:56;;;;;;;6.35;3.10;;;;;;;29.87;34.41;96105.13;4943673;28;20031;-32
2021/07/04 10:51:22;;;;;;;7.53;3.00;;;;;;;29.90;34.32;96104.84;4947782;28;21260;-32
2021/07/04 10:53:52;;;;;;;5.18;3.20;;;;;;;29.89;34.39;96103.16;4953116;28;20838;-34
2021/07/04 10:56:32;;;;;;;4.32;2.75;;;;;;;29.88;34.61;96109.41;4937134;28;20062;-34
2021/07/04 10:59:02;;;;;;;4.40;3.50;;;;;;;29.80;34.40;96093.34;4934812;28;20244;-34
2021/07/04 11:01:49;;;;;;;4.22;3.20;;;;;;;29.83;34.75;96101.03;4946526;28;20163;-31
2021/07/04 11:04:38;;;;;;;4.22;3.47;;;;;;;29.79;34.74;96087.22;4934736;28;20031;-31
2021/07/04 11:07:04;;;;;;;4.13;3.30;;;;;;;29.76;35.05;96078.72;4933653;28;20646;-34
2021/07/04 11:09:52;;;;;;;7.55;3.35;;;;;;;29.72;34.71;96068.41;4930596;28;20038;-32
2021/07/04 11:12:25;;;;;;;4.97;3.28;;;;;;;29.69;34.93;96059.91;4936819;28;20110;-30
2021/07/04 11:15:12;;;;;;;5.78;3.60;;;;;;;29.64;34.94;96051.50;4931672;28;20089;-32
2021/07/04 11:18:04;;;;;;;6.72;4.50;;;;;;;29.60;34.67;96041.19;4934339;28;20266;-34
2021/07/04 11:20:34;;;;;;;8.30;6.22;;;;;;;29.57;35.16;96040.59;4932835;28;20102;-33
2021/07/04 11:23:04;;;;;;;11.05;7.93;;;;;;;29.55;35.28;96042.50;4931357;28;20058;-32
2021/07/04 11:25:48;;;;;;;34.60;20.10;;;;;;;29.52;35.06;96037.50;4929224;28;20027;-34
2021/07/04 11:28:19;;;;;;;89.75;43.30;;;;;;;29.50;35.20;96032.31;4931710;28;20035;-31
2021/07/04 11:30:48;;;;;;;243.00;121.10;;;;;;;29.46;35.15;96034.38;4931700;28;20429;-32
2021/07/04 11:33:33;;;;;;;187.88;93.95;;;;;;;29.44;34.87;96038.91;4935477;28;20923;-34
2021/07/04 11:36:00;;;;;;;172.35;87.25;;;;;;;29.41;35.29;96040.97;4945003;28;20441;-32
2021/07/04 11:38:28;;;;;;;112.05;56.97;;;;;;;29.38;35.18;96036.78;4933801;28;20834;-29
2021/07/04 11:40:53;;;;;;;100.43;50.85;;;;;;;29.34;35.38;96033.53;4933094;28;20035;-30
2021/07/04 11:43:23;;;;;;;117.72;61.88;;;;;;;29.33;35.30;96033.69;4935042;28;20042;-30
2021/07/04 11:45:53;;;;;;;68.97;39.35;;;;;;;29.29;35.30;96032.25;4940734;28;20818;-32
2021/07/04 11:48:18;;;;;;;35.20;20.75;;;;;;;29.24;35.05;96042.31;4937791;28;20031;-34
2021/07/04 11:50:46;;;;;;;29.88;16.17;;;;;;;29.19;34.91;96038.25;4934930;28;20072;-31
2021/07/04 11:53:11;;;;;;;27.42;14.60;;;;;;;29.16;35.44;96033.22;4932712;28;20655;-35
2021/07/04 11:55:56;;;;;;;18.50;11.82;;;;;;;29.13;35.59;96033.44;4933442;28;20019;-31
2021/07/04 11:58:32;;;;;;;15.80;10.57;;;;;;;29.11;35.80;96040.66;4934490;28;21750;-31
2021/07/04 12:00:57;;;;;;;13.70;7.97;;;;;;;29.07;35.71;96031.31;4962679;28;20853;-35
2021/07/04 12:03:25;;;;;;;17.45;8.60;;;;;;;29.04;35.84;96018.34;4936970;28;20035;-29
2021/07/04 12:05:50;;;;;;;12.85;7.68;;;;;;;29.00;36.07;96023.03;4933360;28;20026;-34
2021/07/04 12:08:16;;;;;;;11.00;7.38;;;;;;;28.98;36.04;96024.13;4949716;28;20102;-34
2021/07/04 12:10:52;;;;;;;9.32;6.38;;;;;;;28.94;36.05;96016.44;4934258;28;20053;-34
2021/07/04 12:13:18;;;;;;;11.32;5.45;;;;;;;28.92;36.17;96010.44;4934054;28;20670;-34